Time;durP1;ratioP1;P1;durP2;ratioP2;P2;SDS_P1;SDS_P2;PMS_P1;PMS_P2;Temp;Humidity;BMP_temperature;BMP_pressure;BME280_temperature;BME280_humidity;BME280_pressure;Samples;Min_cycle;Max_cycle;Signal;HPM_P1;HPM_P2
2023/02/28 00:01:22;;;;;;;7.25;4.03;;;1.00;99.90;;;;;;5054277;28;20199;-65
2023/02/28 00:03:49;;;;;;;7.57;5.25;;;0.90;99.90;;;;;;5053485;28;20203;-64
2023/02/28 00:06:16;;;;;;;7.65;4.65;;;0.90;99.90;;;;;;5053355;28;20699;-65
2023/02/28 00:08:43;;;;;;;5.00;4.50;;;0.90;99.90;;;;;;5054838;28;20212;-66
2023/02/28 00:11:11;;;;;;;5.93;4.90;;;0.80;99.90;;;;;;5054553;28;20208;-65
2023/02/28 00:13:40;;;;;;;8.75;4.53;;;0.80;99.90;;;;;;5054638;28;20208;-65
2023/02/28 00:16:10;;;;;;;6.05;4.72;;;0.80;99.90;;;;;;5053833;28;20717;-65
2023/02/28 00:18:38;;;;;;;4.15;3.75;;;0.80;99.90;;;;;;5054447;28;20643;-65
2023/02/28 00:21:05;;;;;;;9.52;4.78;;;0.70;99.90;;;;;;5054621;28;20209;-65
2023/02/28 00:23:32;;;;;;;5.72;4.15;;;0.70;99.90;;;;;;5055336;28;20197;-65
2023/02/28 00:25:59;;;;;;;5.85;5.05;;;0.60;99.90;;;;;;5055797;28;20221;-65
2023/02/28 00:28:26;;;;;;;8.73;4.47;;;0.60;99.90;;;;;;5058252;28;20207;-65
2023/02/28 00:30:53;;;;;;;9.90;4.22;;;0.60;99.90;;;;;;5058532;28;20212;-64
2023/02/28 00:33:20;;;;;;;6.43;4.75;;;0.60;99.90;;;;;;5059036;28;20209;-65
2023/02/28 00:35:48;;;;;;;6.47;4.35;;;0.60;99.90;;;;;;5059321;28;20232;-66
2023/02/28 00:38:15;;;;;;;5.97;4.60;;;0.70;99.90;;;;;;5059865;28;20666;-64
2023/02/28 00:40:42;;;;;;;5.25;4.53;;;0.70;99.90;;;;;;5060003;28;20671;-66
2023/02/28 00:43:09;;;;;;;6.60;4.13;;;0.80;99.90;;;;;;5060693;28;20554;-64
2023/02/28 00:45:36;;;;;;;6.20;4.50;;;0.80;99.90;;;;;;5060362;28;20300;-65
2023/02/28 00:48:03;;;;;;;6.15;4.90;;;0.80;99.90;;;;;;5059657;28;20205;-66
2023/02/28 00:50:30;;;;;;;4.70;4.18;;;0.90;99.90;;;;;;5061115;28;20292;-65
2023/02/28 00:52:58;;;;;;;9.40;5.50;;;0.90;99.90;;;;;;5060821;28;20210;-65
2023/02/28 00:55:25;;;;;;;7.18;4.70;;;0.90;99.90;;;;;;5060034;28;20229;-64
2023/02/28 00:57:52;;;;;;;5.05;4.25;;;0.90;99.90;;;;;;5059899;28;20205;-64
2023/02/28 01:00:19;;;;;;;5.78;4.40;;;0.80;99.90;;;;;;5059152;28;20588;-65
2023/02/28 01:02:46;;;;;;;5.57;4.47;;;0.80;99.90;;;;;;5058224;28;20691;-66
2023/02/28 01:05:13;;;;;;;5.25;4.55;;;0.70;99.90;;;;;;5057792;28;20225;-65
2023/02/28 01:07:40;;;;;;;5.68;4.45;;;0.60;99.90;;;;;;5058334;28;20694;-64
2023/02/28 01:10:10;;;;;;;8.57;4.30;;;0.60;99.90;;;;;;5057628;28;20235;-65
2023/02/28 01:12:37;;;;;;;8.27;5.15;;;0.50;99.90;;;;;;5058087;28;20570;-65
2023/02/28 01:15:04;;;;;;;5.88;5.03;;;0.40;99.90;;;;;;5058185;28;20211;-64
2023/02/28 01:17:31;;;;;;;7.18;5.22;;;0.40;99.90;;;;;;5057388;28;20222;-64
2023/02/28 01:19:58;;;;;;;7.90;5.90;;;0.30;99.90;;;;;;5057511;28;20228;-65
2023/02/28 01:22:25;;;;;;;6.05;5.45;;;0.30;99.90;;;;;;5057527;28;20220;-65
2023/02/28 01:24:51;;;;;;;9.77;6.57;;;0.20;99.90;;;;;;5057781;28;20209;-64
2023/02/28 01:27:20;;;;;;;7.93;5.35;;;0.10;99.90;;;;;;5057467;28;20213;-64
2023/02/28 01:29:47;;;;;;;5.78;5.20;;;0.10;99.90;;;;;;5057156;28;20555;-64
2023/02/28 01:32:13;;;;;;;7.47;5.20;;;0.00;99.90;;;;;;5057671;28;20197;-65
2023/02/28 01:34:40;;;;;;;5.32;4.82;;;-0.10;99.90;;;;;;5057375;28;20204;-64
2023/02/28 01:37:07;;;;;;;5.63;5.07;;;-0.20;99.90;;;;;;5056640;28;20225;-64
2023/02/28 01:39:34;;;;;;;9.30;5.43;;;-0.20;99.90;;;;;;5056472;28;20246;-64
2023/02/28 01:42:00;;;;;;;6.43;3.95;;;-0.20;99.90;;;;;;5056844;28;20213;-66
2023/02/28 01:45:01;;;;;;;6.03;5.38;;;-0.20;99.90;;;;;;5057135;28;20206;-65
2023/02/28 01:47:33;;;;;;;6.85;5.32;;;-0.30;99.90;;;;;;5056305;28;20202;-66
2023/02/28 01:50:02;;;;;;;6.00;5.20;;;-0.30;99.90;;;;;;5056254;28;20201;-64
2023/02/28 01:52:30;;;;;;;4.97;4.47;;;-0.30;99.90;;;;;;5055707;28;20584;-64
2023/02/28 01:55:00;;;;;;;5.25;4.72;;;-0.40;99.90;;;;;;5055892;28;20202;-63
2023/02/28 01:57:37;;;;;;;8.23;6.00;;;-0.40;99.90;;;;;;5055613;28;20690;-64
2023/02/28 02:00:08;;;;;;;7.95;5.15;;;-0.40;99.90;;;;;;5056227;28;20281;-63
2023/02/28 02:02:37;;;;;;;7.57;5.43;;;-0.40;99.90;;;;;;5056552;28;20250;-65
2023/02/28 02:05:06;;;;;;;7.85;5.35;;;-0.50;99.90;;;;;;5056250;28;20214;-64
2023/02/28 02:07:35;;;;;;;7.65;5.30;;;-0.50;99.90;;;;;;5055768;28;20197;-65
2023/02/28 02:10:06;;;;;;;5.88;5.07;;;-0.50;99.90;;;;;;5054977;28;20216;-65
2023/02/28 02:13:10;;;;;;;8.38;6.13;;;-0.50;99.90;;;;;;5055653;28;20602;-65
2023/02/28 02:15:42;;;;;;;7.40;5.25;;;-0.50;99.90;;;;;;4994255;28;20223;-65
2023/02/28 02:18:19;;;;;;;5.80;5.20;;;-0.60;99.90;;;;;;4994283;28;20211;-68
2023/02/28 02:21:05;;;;;;;9.25;5.88;;;-0.70;99.90;;;;;;5027968;28;20205;-66
2023/02/28 02:24:06;;;;;;;7.15;4.88;;;-0.70;99.90;;;;;;5052950;28;20205;-65
2023/02/28 02:26:48;;;;;;;7.15;6.25;;;-0.80;99.90;;;;;;5044660;28;20229;-65
2023/02/28 02:29:39;;;;;;;8.77;6.38;;;-0.80;99.90;;;;;;5055343;28;20570;-65
2023/02/28 02:32:32;;;;;;;13.52;5.82;;;-0.80;99.90;;;;;;5052730;28;20206;-65
2023/02/28 02:35:13;;;;;;;8.65;5.68;;;-0.80;99.90;;;;;;5052484;28;20205;-64
2023/02/28 02:37:48;;;;;;;10.30;5.72;;;-0.80;99.90;;;;;;5055140;28;20214;-64
2023/02/28 02:40:19;;;;;;;9.13;5.95;;;-0.80;99.90;;;;;;5054585;28;20662;-64
2023/02/28 02:42:51;;;;;;;9.00;5.60;;;-0.80;99.90;;;;;;5056122;28;20213;-64
2023/02/28 02:45:23;;;;;;;8.57;5.72;;;-0.80;99.90;;;;;;5055406;28;20214;-63
2023/02/28 02:47:51;;;;;;;7.55;5.38;;;-0.90;99.90;;;;;;5056176;28;20186;-63
2023/02/28 02:50:24;;;;;;;6.00;5.05;;;-0.90;99.90;;;;;;5054072;28;20198;-63
2023/02/28 02:53:00;;;;;;;6.22;5.10;;;-0.90;99.90;;;;;;5054938;28;20190;-63
2023/02/28 02:55:27;;;;;;;8.30;5.45;;;-0.90;99.90;;;;;;5054478;28;20223;-63
2023/02/28 02:57:59;;;;;;;7.35;5.38;;;-0.90;99.90;;;;;;5056331;28;20222;-63
2023/02/28 03:00:31;;;;;;;6.43;5.40;;;-1.00;99.90;;;;;;5055263;28;20182;-63
2023/02/28 03:02:58;;;;;;;6.18;5.50;;;-1.00;99.90;;;;;;5054791;28;20189;-64
2023/02/28 03:05:30;;;;;;;7.38;5.22;;;-1.00;99.90;;;;;;5054019;28;20225;-64
2023/02/28 03:07:57;;;;;;;6.70;5.22;;;-1.10;99.90;;;;;;5054122;28;20189;-64
2023/02/28 03:10:31;;;;;;;5.68;4.90;;;-1.10;99.90;;;;;;5054043;28;20217;-63
2023/02/28 03:13:23;;;;;;;8.40;5.45;;;-1.10;99.90;;;;;;5053969;28;20186;-63
2023/02/28 03:16:04;;;;;;;8.15;4.90;;;-1.20;99.90;;;;;;5048599;28;20230;-64
2023/02/28 03:18:38;;;;;;;11.57;5.68;;;-1.20;99.90;;;;;;5054101;28;20193;-64
2023/02/28 03:21:15;;;;;;;7.30;5.60;;;-1.20;99.90;;;;;;5054504;28;20186;-62
2023/02/28 03:23:48;;;;;;;10.07;5.38;;;-1.20;99.90;;;;;;5054584;28;20186;-63
2023/02/28 03:26:21;;;;;;;6.80;5.65;;;-1.20;99.90;;;;;;5054204;28;20222;-65
2023/02/28 03:28:57;;;;;;;7.47;5.20;;;-1.20;99.90;;;;;;5054148;28;20182;-63
2023/02/28 03:31:28;;;;;;;9.98;4.93;;;-1.20;99.90;;;;;;5054102;28;20190;-63
2023/02/28 03:34:02;;;;;;;6.00;4.78;;;-1.20;99.90;;;;;;5053577;28;20671;-64
2023/02/28 03:36:33;;;;;;;6.10;5.43;;;-1.20;99.90;;;;;;5053657;28;20691;-64
2023/02/28 03:39:03;;;;;;;7.20;5.65;;;-1.20;99.90;;;;;;5053854;28;20182;-64
2023/02/28 03:41:35;;;;;;;10.38;5.70;;;-1.20;99.90;;;;;;5054167;28;20213;-65
2023/02/28 03:44:06;;;;;;;7.30;5.97;;;-1.20;99.90;;;;;;5053765;28;20193;-62
2023/02/28 03:46:40;;;;;;;5.53;5.00;;;-1.20;99.90;;;;;;5053418;28;20715;-63
2023/02/28 03:49:14;;;;;;;6.47;4.82;;;-1.20;99.90;;;;;;5053943;28;20216;-63
2023/02/28 03:51:44;;;;;;;9.90;5.65;;;-1.30;99.90;;;;;;5053464;28;20518;-63
2023/02/28 03:54:14;;;;;;;8.45;6.63;;;-1.30;99.90;;;;;;5053354;28;20237;-64
2023/02/28 03:56:48;;;;;;;6.93;5.72;;;-1.30;99.90;;;;;;5053856;28;20233;-64
2023/02/28 03:59:19;;;;;;;6.72;5.22;;;-1.40;99.90;;;;;;5053467;28;20190;-63
2023/02/28 04:01:48;;;;;;;7.80;5.57;;;-1.40;99.90;;;;;;5053113;28;20189;-62
2023/02/28 04:04:16;;;;;;;7.20;5.65;;;-1.40;99.90;;;;;;5052966;28;20679;-63
2023/02/28 04:06:45;;;;;;;6.95;6.35;;;-1.40;99.90;;;;;;5053330;28;20738;-64
2023/02/28 04:11:21;;;;;;;6.13;5.45;;;-1.40;99.90;;;;;;5112434;27;1238653;-63
2023/02/28 04:13:48;;;;;;;6.45;5.85;;;-1.40;99.90;;;;;;5131919;28;20189;-63
2023/02/28 04:16:15;;;;;;;7.35;5.55;;;-1.40;99.90;;;;;;5119075;28;20281;-63
2023/02/28 04:18:43;;;;;;;7.43;5.80;;;-1.40;99.90;;;;;;5111202;28;20575;-63
2023/02/28 04:21:11;;;;;;;8.93;6.10;;;-1.40;99.90;;;;;;5111576;28;20192;-64
2023/02/28 04:23:38;;;;;;;5.85;5.03;;;-1.40;99.90;;;;;;5111444;28;20204;-64
2023/02/28 04:26:05;;;;;;;6.38;5.82;;;-1.40;99.90;;;;;;5110626;28;20215;-64
2023/02/28 04:28:34;;;;;;;7.85;6.10;;;-1.40;99.90;;;;;;5110456;28;20618;-64
2023/02/28 04:31:03;;;;;;;14.50;6.57;;;-1.40;99.90;;;;;;5110632;28;20294;-64
2023/02/28 04:33:31;;;;;;;8.82;5.82;;;-1.40;99.90;;;;;;5110869;28;20206;-64
2023/02/28 04:36:03;;;;;;;8.77;5.90;;;-1.50;99.90;;;;;;5111439;28;20220;-64
2023/02/28 04:38:30;;;;;;;6.75;5.45;;;-1.50;99.90;;;;;;5111093;28;20199;-66
2023/02/28 04:40:58;;;;;;;7.28;5.55;;;-1.40;99.90;;;;;;5110878;28;20203;-64
2023/02/28 04:43:27;;;;;;;7.72;5.70;;;-1.40;99.90;;;;;;5110596;28;20253;-64
2023/02/28 04:45:56;;;;;;;7.75;5.45;;;-1.50;99.90;;;;;;5110452;28;20735;-64
2023/02/28 04:48:24;;;;;;;6.35;5.63;;;-1.40;99.90;;;;;;5110758;28;20207;-64
2023/02/28 04:50:51;;;;;;;6.85;5.32;;;-1.40;99.90;;;;;;5110306;28;20219;-64
2023/02/28 04:53:18;;;;;;;9.60;4.70;;;-1.50;99.90;;;;;;5110181;28;20204;-65
2023/02/28 04:55:44;;;;;;;7.22;5.07;;;-1.50;99.90;;;;;;5110427;28;20224;-63
2023/02/28 04:58:11;;;;;;;5.85;5.25;;;-1.50;99.90;;;;;;5110381;28;20295;-66
2023/02/28 05:00:38;;;;;;;7.95;5.53;;;-1.50;99.90;;;;;;5110645;28;20569;-64
2023/02/28 05:03:06;;;;;;;7.57;5.63;;;-1.50;99.90;;;;;;5110615;28;20200;-65
2023/02/28 05:05:33;;;;;;;6.75;5.07;;;-1.50;99.90;;;;;;5109031;28;20311;-63
2023/02/28 05:08:00;;;;;;;5.80;5.20;;;-1.60;99.90;;;;;;5110456;28;20665;-64
2023/02/28 05:10:27;;;;;;;5.20;4.70;;;-1.60;99.90;;;;;;5110208;28;20574;-63
2023/02/28 05:12:54;;;;;;;6.75;5.95;;;-1.60;99.90;;;;;;5110842;28;20214;-64
2023/02/28 05:15:20;;;;;;;6.00;5.40;;;-1.60;99.90;;;;;;5111500;28;20224;-64
2023/02/28 05:17:47;;;;;;;5.53;4.50;;;-1.60;99.90;;;;;;5109850;28;20207;-64
2023/02/28 05:20:15;;;;;;;8.38;4.85;;;-1.60;99.90;;;;;;5110211;28;20195;-64
2023/02/28 05:22:43;;;;;;;4.70;4.30;;;-1.60;99.90;;;;;;5097535;28;20204;-64
2023/02/28 05:25:13;;;;;;;6.95;5.28;;;-1.60;99.90;;;;;;5096897;28;20712;-63
2023/02/28 05:27:40;;;;;;;5.88;4.68;;;-1.60;99.90;;;;;;5097961;28;20249;-64
2023/02/28 05:30:10;;;;;;;6.32;4.82;;;-1.60;99.90;;;;;;5097085;28;20220;-64
2023/02/28 05:32:37;;;;;;;5.30;4.30;;;-1.60;99.90;;;;;;5097421;28;20206;-64
2023/02/28 05:35:04;;;;;;;5.32;4.40;;;-1.60;99.90;;;;;;5095953;28;20590;-64
2023/02/28 05:37:32;;;;;;;10.88;5.22;;;-1.60;99.90;;;;;;5097179;28;20211;-64
2023/02/28 05:39:59;;;;;;;5.68;5.07;;;-1.60;99.90;;;;;;5097469;28;20573;-65
2023/02/28 05:42:25;;;;;;;8.88;5.25;;;-1.60;99.90;;;;;;5096456;28;20196;-64
2023/02/28 05:44:52;;;;;;;5.97;5.38;;;-1.60;99.90;;;;;;5097172;28;20211;-65
2023/02/28 05:47:19;;;;;;;7.60;5.90;;;-1.60;99.90;;;;;;5096225;28;20227;-64
2023/02/28 05:49:46;;;;;;;10.60;6.20;;;-1.60;99.90;;;;;;5095482;28;20223;-64
2023/02/28 05:52:13;;;;;;;6.78;5.80;;;-1.70;99.90;;;;;;5096170;28;20207;-64
2023/02/28 05:54:41;;;;;;;10.38;5.68;;;-1.70;99.90;;;;;;5094930;28;20206;-63
2023/02/28 05:57:08;;;;;;;6.35;5.43;;;-1.70;99.90;;;;;;5091650;28;20721;-65
2023/02/28 05:59:39;;;;;;;6.00;5.40;;;-1.80;99.90;;;;;;5095132;28;20204;-64
2023/02/28 06:02:06;;;;;;;10.32;5.82;;;-1.80;99.90;;;;;;5095451;28;20200;-64
2023/02/28 06:04:33;;;;;;;6.38;4.90;;;-1.80;99.90;;;;;;5095606;28;20192;-64
2023/02/28 06:07:01;;;;;;;7.68;5.35;;;-1.80;99.90;;;;;;5095786;28;20738;-64
2023/02/28 06:09:28;;;;;;;6.78;5.90;;;-1.80;99.90;;;;;;5093995;28;20200;-65
2023/02/28 06:11:58;;;;;;;9.13;5.88;;;-1.80;99.90;;;;;;5092777;28;20199;-63
2023/02/28 06:14:25;;;;;;;15.38;6.53;;;-1.80;99.90;;;;;;5092829;28;20296;-65
2023/02/28 06:16:52;;;;;;;6.57;5.30;;;-1.80;99.90;;;;;;5092461;28;20220;-65
2023/02/28 06:19:19;;;;;;;7.35;6.50;;;-1.90;99.90;;;;;;5092190;28;20211;-63
2023/02/28 06:21:46;;;;;;;6.97;6.25;;;-1.90;99.90;;;;;;5095836;28;20275;-65
2023/02/28 06:24:12;;;;;;;8.95;5.93;;;-1.90;99.90;;;;;;5094207;28;20197;-63
2023/02/28 06:26:39;;;;;;;7.43;6.03;;;-1.90;99.90;;;;;;5092374;28;20224;-64
2023/02/28 06:29:08;;;;;;;7.00;5.72;;;-1.90;99.90;;;;;;5096450;28;20681;-64
2023/02/28 06:31:35;;;;;;;8.98;6.15;;;-1.90;99.90;;;;;;5096136;28;20243;-63
2023/02/28 06:34:02;;;;;;;12.25;6.30;;;-1.80;99.90;;;;;;5092996;28;20211;-65
2023/02/28 06:36:28;;;;;;;9.43;6.00;;;-1.80;99.90;;;;;;5094237;28;20224;-64
2023/02/28 06:38:55;;;;;;;6.53;5.35;;;-1.70;99.90;;;;;;5096370;28;20197;-65
2023/02/28 06:41:23;;;;;;;7.00;5.70;;;-1.60;99.90;;;;;;5090868;28;20267;-63
2023/02/28 06:43:50;;;;;;;9.48;6.90;;;-1.60;99.90;;;;;;5091000;28;20207;-66
2023/02/28 06:46:19;;;;;;;8.32;6.30;;;-1.60;99.90;;;;;;5090010;28;20228;-67
2023/02/28 06:48:46;;;;;;;9.60;6.60;;;-1.60;99.90;;;;;;5094617;28;20664;-65
2023/02/28 06:51:15;;;;;;;8.70;6.20;;;-1.50;99.90;;;;;;5094374;28;20216;-64
2023/02/28 06:53:42;;;;;;;13.90;6.40;;;-1.50;99.90;;;;;;5095225;28;20196;-64
2023/02/28 06:56:11;;;;;;;7.05;5.45;;;-1.40;99.90;;;;;;5096025;28;20235;-65
2023/02/28 06:58:39;;;;;;;8.40;6.45;;;-1.30;99.90;;;;;;5094446;28;20711;-65
2023/02/28 07:01:06;;;;;;;6.63;5.80;;;-1.20;99.90;;;;;;5094853;28;20197;-64
2023/02/28 07:03:36;;;;;;;6.82;5.65;;;-1.10;99.90;;;;;;5094595;28;20622;-66
2023/02/28 07:06:03;;;;;;;7.25;5.82;;;-1.10;99.90;;;;;;5096639;28;20220;-65
2023/02/28 07:08:31;;;;;;;7.20;6.20;;;-1.00;99.90;;;;;;5095286;28;20196;-65
2023/02/28 07:10:58;;;;;;;9.13;5.35;;;-0.80;99.90;;;;;;5095505;28;20228;-65
2023/02/28 07:13:25;;;;;;;7.13;5.68;;;-0.80;99.90;;;;;;5095390;28;20204;-65
2023/02/28 07:15:56;;;;;;;6.07;5.38;;;-0.60;99.90;;;;;;5095626;28;20228;-67
2023/02/28 07:18:24;;;;;;;7.20;5.88;;;-0.60;99.90;;;;;;5095534;28;20572;-64
2023/02/28 07:20:52;;;;;;;7.15;5.70;;;-0.40;99.90;;;;;;5094939;28;20206;-64
2023/02/28 07:23:19;;;;;;;9.60;5.55;;;-0.30;99.90;;;;;;5094402;28;20689;-63
2023/02/28 07:25:46;;;;;;;11.18;5.90;;;-0.20;99.90;;;;;;5093950;28;20709;-66
2023/02/28 07:28:13;;;;;;;9.10;6.32;;;-0.10;99.90;;;;;;5094389;28;20204;-64
2023/02/28 07:30:40;;;;;;;7.95;5.82;;;0.10;99.90;;;;;;5094750;28;20217;-65
2023/02/28 07:33:07;;;;;;;6.82;5.43;;;0.30;99.90;;;;;;5094905;28;20200;-65
2023/02/28 07:35:34;;;;;;;10.27;6.10;;;0.40;99.90;;;;;;5095137;28;20221;-64
2023/02/28 07:38:02;;;;;;;7.85;5.57;;;0.60;99.90;;;;;;5094217;28;20204;-65
2023/02/28 07:40:29;;;;;;;7.63;5.80;;;0.60;99.90;;;;;;5094842;28;20697;-65
2023/02/28 07:42:56;;;;;;;12.80;5.47;;;0.70;99.90;;;;;;5094803;28;20207;-65
2023/02/28 07:45:23;;;;;;;7.20;5.57;;;0.80;99.90;;;;;;5094120;28;20224;-65
2023/02/28 07:47:49;;;;;;;8.93;5.82;;;0.90;99.90;;;;;;5095205;28;20224;-66
2023/02/28 07:50:17;;;;;;;8.00;5.38;;;1.00;99.90;;;;;;5094785;28;20713;-65
2023/02/28 07:52:44;;;;;;;7.90;6.07;;;1.10;99.90;;;;;;5094313;28;20673;-64
2023/02/28 07:55:13;;;;;;;15.05;5.95;;;1.10;99.90;;;;;;5094303;28;20306;-65
2023/02/28 07:57:41;;;;;;;6.95;5.80;;;1.20;99.90;;;;;;5094342;28;20206;-65
2023/02/28 08:00:10;;;;;;;9.00;5.88;;;1.20;99.90;;;;;;5095492;28;20246;-65
2023/02/28 08:02:38;;;;;;;7.40;5.65;;;1.30;99.90;;;;;;5094901;28;20200;-66
2023/02/28 08:05:05;;;;;;;12.10;6.50;;;1.30;99.90;;;;;;5095022;28;20208;-65
2023/02/28 08:07:32;;;;;;;9.40;6.15;;;1.30;99.90;;;;;;5094623;28;20210;-65
2023/02/28 08:09:59;;;;;;;6.65;4.95;;;1.20;99.90;;;;;;5093545;28;20212;-66
2023/02/28 08:12:27;;;;;;;8.07;5.93;;;1.20;99.90;;;;;;5093953;28;20263;-64
2023/02/28 08:14:54;;;;;;;5.82;5.13;;;1.20;99.90;;;;;;5093737;28;20549;-66
2023/02/28 08:17:20;;;;;;;6.97;4.95;;;1.30;99.90;;;;;;5094625;28;20568;-65
2023/02/28 08:19:47;;;;;;;6.45;5.75;;;1.30;99.90;;;;;;5094330;28;20301;-66
2023/02/28 08:22:14;;;;;;;6.13;5.53;;;1.30;99.90;;;;;;5094095;28;20665;-67
2023/02/28 08:24:43;;;;;;;6.68;5.13;;;1.40;99.90;;;;;;5094337;28;20200;-65
2023/02/28 08:27:10;;;;;;;6.10;5.20;;;1.50;99.90;;;;;;5094899;28;20224;-66
2023/02/28 08:29:39;;;;;;;6.18;5.18;;;1.60;99.90;;;;;;5094708;28;20226;-64
2023/02/28 08:32:06;;;;;;;8.77;4.78;;;1.70;99.90;;;;;;5094953;28;20227;-65
2023/02/28 08:34:33;;;;;;;5.60;4.55;;;1.80;99.90;;;;;;5095041;28;20200;-66
2023/02/28 08:37:00;;;;;;;7.07;4.15;;;2.00;99.90;;;;;;5094241;28;20252;-66
2023/02/28 08:39:27;;;;;;;5.13;4.63;;;2.00;99.90;;;;;;5094576;28;20223;-66
2023/02/28 08:41:54;;;;;;;7.38;4.40;;;2.10;99.90;;;;;;5094450;28;20208;-66
2023/02/28 08:44:20;;;;;;;5.95;4.47;;;2.10;99.90;;;;;;5094171;28;20203;-65
2023/02/28 08:46:48;;;;;;;5.43;4.00;;;2.20;99.90;;;;;;5093700;28;20724;-66
2023/02/28 08:49:15;;;;;;;4.68;3.58;;;2.30;99.70;;;;;;5094548;28;20215;-63
2023/02/28 08:51:43;;;;;;;8.50;4.65;;;2.40;98.80;;;;;;5093985;28;20307;-64
2023/02/28 08:54:12;;;;;;;6.00;3.63;;;2.50;98.50;;;;;;5094336;28;20231;-65
2023/02/28 08:56:39;;;;;;;9.40;4.80;;;2.60;98.20;;;;;;5095910;28;20220;-65
2023/02/28 08:59:06;;;;;;;5.13;3.85;;;2.70;97.50;;;;;;5098794;28;20196;-65
2023/02/28 09:01:33;;;;;;;5.75;3.90;;;2.80;97.00;;;;;;5098436;28;20580;-64
2023/02/28 09:04:02;;;;;;;3.15;2.90;;;2.90;96.20;;;;;;5098386;28;20201;-65
2023/02/28 09:06:29;;;;;;;7.53;3.90;;;3.00;95.20;;;;;;5098265;28;20234;-64
2023/02/28 09:08:59;;;;;;;3.10;2.75;;;3.00;94.80;;;;;;5099106;28;20202;-65
2023/02/28 09:11:26;;;;;;;7.68;2.85;;;3.10;94.20;;;;;;5099160;28;20224;-64
2023/02/28 09:13:55;;;;;;;4.55;3.40;;;3.10;93.70;;;;;;5098455;28;20203;-65
2023/02/28 09:16:22;;;;;;;3.22;2.92;;;3.20;93.30;;;;;;5098138;28;20717;-64
2023/02/28 09:18:49;;;;;;;4.85;3.40;;;3.20;92.60;;;;;;5100823;28;20203;-65
2023/02/28 09:21:19;;;;;;;4.90;3.10;;;3.30;92.70;;;;;;5099183;28;20193;-63
2023/02/28 09:23:48;;;;;;;5.55;3.22;;;3.30;91.70;;;;;;5098620;28;20230;-64
2023/02/28 09:26:16;;;;;;;5.40;3.35;;;3.30;91.00;;;;;;5098002;28;20315;-63
2023/02/28 09:28:43;;;;;;;5.10;3.30;;;3.30;91.10;;;;;;5097799;28;20590;-64
2023/02/28 09:31:14;;;;;;;4.22;2.97;;;3.40;90.80;;;;;;5096974;28;20220;-65
2023/02/28 09:33:42;;;;;;;6.75;2.88;;;3.50;90.50;;;;;;5097527;28;20216;-65
2023/02/28 09:36:09;;;;;;;3.40;2.67;;;3.60;90.20;;;;;;5097537;28;20224;-65
2023/02/28 09:38:37;;;;;;;2.78;2.47;;;3.70;89.10;;;;;;5097682;28;20207;-64
2023/02/28 09:41:11;;;;;;;6.70;2.95;;;3.70;86.90;;;;;;5097522;28;20204;-63
2023/02/28 09:43:41;;;;;;;3.28;2.75;;;3.70;85.50;;;;;;5097405;28;20188;-64
2023/02/28 09:46:22;;;;;;;4.43;3.05;;;3.80;85.40;;;;;;5097672;28;20231;-65
2023/02/28 09:48:50;;;;;;;6.28;3.72;;;3.80;84.70;;;;;;5097139;28;20556;-65
2023/02/28 09:51:30;;;;;;;4.57;3.22;;;3.90;84.60;;;;;;5097193;28;20216;-65
2023/02/28 09:53:59;;;;;;;4.43;2.40;;;4.10;84.10;;;;;;5097418;28;20215;-66
2023/02/28 09:56:31;;;;;;;4.65;2.70;;;4.20;83.40;;;;;;5096837;28;20658;-64
2023/02/28 09:59:02;;;;;;;3.30;2.83;;;4.30;81.10;;;;;;5097040;28;20184;-65
2023/02/28 10:01:38;;;;;;;3.53;2.22;;;4.40;80.70;;;;;;5096972;28;20189;-66
2023/02/28 10:04:12;;;;;;;4.70;2.38;;;4.50;80.00;;;;;;5097227;28;20223;-67
2023/02/28 10:06:45;;;;;;;3.20;2.40;;;4.50;77.90;;;;;;5096865;28;20302;-66
2023/02/28 10:09:18;;;;;;;4.18;2.13;;;4.50;76.00;;;;;;5096548;28;20268;-65
2023/02/28 10:11:46;;;;;;;6.57;2.28;;;4.60;75.60;;;;;;5098258;28;20276;-63
2023/02/28 10:14:15;;;;;;;2.53;1.98;;;4.70;75.30;;;;;;5098014;28;20212;-64
2023/02/28 10:16:51;;;;;;;3.03;2.72;;;4.70;73.30;;;;;;5100640;28;20239;-65
2023/02/28 10:19:23;;;;;;;3.13;2.15;;;4.80;72.40;;;;;;5098564;28;20189;-65
2023/02/28 10:21:57;;;;;;;3.25;2.50;;;4.70;70.20;;;;;;5098818;28;20199;-68
2023/02/28 10:24:31;;;;;;;3.65;2.88;;;4.70;69.60;;;;;;5097231;28;20184;-68
2023/02/28 10:27:01;;;;;;;2.78;2.08;;;4.70;69.30;;;;;;5096692;28;20228;-67
2023/02/28 10:29:30;;;;;;;2.85;1.95;;;4.80;69.00;;;;;;5097801;28;20249;-67
2023/02/28 10:31:57;;;;;;;3.90;2.53;;;4.80;68.10;;;;;;5096863;28;20307;-69
2023/02/28 10:34:26;;;;;;;2.28;1.80;;;4.80;66.70;;;;;;5096972;28;20236;-68
2023/02/28 10:36:53;;;;;;;2.55;1.63;;;4.90;66.30;;;;;;5096493;28;20216;-67
2023/02/28 10:39:39;;;;;;;2.10;1.80;;;4.90;65.80;;;;;;5096349;28;20689;-67
2023/02/28 10:42:21;;;;;;;2.78;1.83;;;5.00;64.20;;;;;;5096622;28;20275;-68
2023/02/28 10:44:48;;;;;;;2.58;1.80;;;5.00;62.50;;;;;;5096265;28;20272;-64
2023/02/28 10:47:17;;;;;;;4.38;1.98;;;4.90;61.60;;;;;;5095816;28;20204;-64
2023/02/28 10:49:48;;;;;;;1.92;1.52;;;5.00;61.80;;;;;;5095600;28;20669;-65
2023/02/28 10:52:38;;;;;;;1.50;1.40;;;5.10;62.00;;;;;;5096363;28;20207;-64
2023/02/28 10:55:23;;;;;;;1.83;1.67;;;5.20;60.40;;;;;;5096472;28;20199;-63
2023/02/28 10:57:50;;;;;;;2.60;2.40;;;5.20;59.30;;;;;;5096944;28;20200;-64
2023/02/28 11:00:21;;;;;;;6.75;1.70;;;5.20;58.60;;;;;;5096066;28;20574;-65
2023/02/28 11:02:48;;;;;;;5.45;1.50;;;5.20;58.10;;;;;;5096287;28;20185;-64
2023/02/28 11:05:27;;;;;;;5.57;2.00;;;5.30;57.20;;;;;;5096698;28;20228;-65
2023/02/28 11:07:56;;;;;;;4.50;1.33;;;5.30;56.40;;;;;;5094937;28;20584;-65
2023/02/28 11:10:29;;;;;;;2.95;1.75;;;5.30;56.20;;;;;;5094921;28;20224;-64
2023/02/28 11:12:57;;;;;;;1.40;1.30;;;5.50;55.60;;;;;;5095086;28;20569;-63
2023/02/28 11:15:26;;;;;;;3.75;1.90;;;5.50;54.10;;;;;;5094775;28;20221;-64
2023/02/28 11:17:59;;;;;;;1.95;1.70;;;5.40;53.50;;;;;;5094643;28;20208;-64
2023/02/28 11:20:29;;;;;;;1.95;1.42;;;5.30;52.80;;;;;;5094163;28;20204;-64
2023/02/28 11:22:58;;;;;;;2.90;1.23;;;5.30;51.30;;;;;;5095523;28;20207;-64
2023/02/28 11:25:27;;;;;;;1.50;1.30;;;5.30;50.60;;;;;;5094207;28;20705;-64
2023/02/28 11:27:56;;;;;;;1.40;1.30;;;5.20;50.30;;;;;;5094982;28;20196;-64
2023/02/28 11:30:29;;;;;;;2.97;1.33;;;5.30;50.30;;;;;;5094322;28;20200;-64
2023/02/28 11:32:56;;;;;;;1.70;1.33;;;5.40;50.50;;;;;;5093910;28;20223;-63
2023/02/28 11:35:28;;;;;;;2.92;1.67;;;5.50;50.50;;;;;;5094398;28;20227;-64
2023/02/28 11:37:55;;;;;;;1.88;1.45;;;5.50;50.30;;;;;;5095574;28;20191;-64
2023/02/28 11:40:30;;;;;;;3.00;1.80;;;5.50;50.30;;;;;;5095306;28;20258;-63
2023/02/28 11:43:07;;;;;;;1.50;1.30;;;5.50;50.70;;;;;;5101578;22;20228;-62
2023/02/28 11:45:51;;;;;;;2.90;1.70;;;5.70;51.00;;;;;;5054291;28;20182;-61
2023/02/28 11:48:23;;;;;;;4.78;2.25;;;5.70;50.90;;;;;;5054152;28;20190;-61
2023/02/28 11:51:01;;;;;;;4.53;1.50;;;5.60;51.30;;;;;;5054916;28;20590;-63
2023/02/28 11:53:46;;;;;;;5.45;2.30;;;5.60;51.80;;;;;;5063494;28;20235;-62
2023/02/28 11:56:25;;;;;;;2.03;1.60;;;5.40;52.10;;;;;;5074462;28;20185;-61
2023/02/28 11:59:03;;;;;;;2.83;1.83;;;5.30;52.70;;;;;;5073474;28;20559;-61
2023/02/28 12:01:44;;;;;;;4.78;2.80;;;5.10;53.00;;;;;;5073979;28;20185;-61
2023/02/28 12:04:23;;;;;;;5.43;2.50;;;5.00;53.40;;;;;;5073971;28;20231;-62
2023/02/28 12:06:58;;;;;;;2.50;2.03;;;5.00;53.80;;;;;;5074364;28;20192;-63
2023/02/28 12:09:39;;;;;;;3.78;2.40;;;5.00;54.10;;;;;;5074452;28;20181;-62
2023/02/28 12:12:20;;;;;;;9.60;3.85;;;5.10;54.30;;;;;;5074036;28;20224;-62
2023/02/28 12:15:23;;;;;;;3.42;1.95;;;5.10;54.20;;;;;;5073923;28;20188;-63
2023/02/28 12:18:05;;;;;;;4.13;1.90;;;5.40;54.40;;;;;;4991845;28;20211;-62
2023/02/28 12:20:37;;;;;;;2.42;2.22;;;5.70;54.10;;;;;;5067131;28;20674;-62
2023/02/28 12:23:35;;;;;;;2.40;2.00;;;6.00;53.10;;;;;;5073927;28;20232;-62
2023/02/28 12:26:10;;;;;;;2.10;1.90;;;6.20;52.70;;;;;;5053598;28;20191;-62
2023/02/28 12:28:43;;;;;;;2.83;2.00;;;6.40;52.00;;;;;;5069322;28;20196;-62
2023/02/28 12:31:16;;;;;;;2.33;2.13;;;6.40;51.30;;;;;;5074703;28;20205;-64
2023/02/28 12:33:47;;;;;;;3.50;1.90;;;6.30;51.00;;;;;;5080046;28;20227;-63
2023/02/28 12:36:18;;;;;;;2.67;2.45;;;6.20;51.30;;;;;;5075889;28;20197;-61
2023/02/28 12:38:49;;;;;;;4.35;2.25;;;6.10;51.50;;;;;;5078767;28;20211;-62
2023/02/28 12:41:18;;;;;;;3.88;2.33;;;6.00;51.70;;;;;;5078407;28;20672;-61
2023/02/28 12:43:50;;;;;;;2.33;2.15;;;5.90;52.10;;;;;;5077123;28;20272;-62
2023/02/28 12:46:22;;;;;;;2.15;1.95;;;6.00;52.30;;;;;;5076977;28;20185;-61
2023/02/28 12:48:55;;;;;;;2.78;2.55;;;6.00;52.50;;;;;;5075173;28;20297;-63
2023/02/28 12:51:23;;;;;;;4.10;2.25;;;6.10;52.70;;;;;;5058939;28;20186;-63
2023/02/28 12:53:58;;;;;;;4.00;2.35;;;6.10;52.70;;;;;;5073384;28;20233;-63
2023/02/28 12:56:36;;;;;;;5.10;3.03;;;6.00;53.00;;;;;;5077151;28;20197;-62
2023/02/28 12:59:11;;;;;;;4.53;2.25;;;5.80;52.50;;;;;;5078391;28;20187;-62
2023/02/28 13:01:47;;;;;;;3.90;2.40;;;5.60;52.60;;;;;;5078737;28;20197;-63
2023/02/28 13:04:47;;;;;;;3.67;2.50;;;5.50;52.70;;;;;;5077402;28;20217;-62
2023/02/28 13:07:46;;;;;;;5.05;2.90;;;5.50;53.00;;;;;;5075547;28;20819;-61
2023/02/28 13:10:15;;;;;;;6.68;2.50;;;5.60;53.00;;;;;;5086866;28;20236;-62
2023/02/28 13:12:49;;;;;;;4.35;3.00;;;5.70;53.10;;;;;;5085183;28;20227;-62